Terminal Aerodrome Forecast
Issued by NWS Albany, NY

Home | Current Version | Previous Version | Text Only | Print | Product List | Glossary On
Versions: 1 2 3 4 5 6 7 8 9 10 11 12 13 14 15 16 17 18 19 20
004
FTUS41 KALY 071724
TAFPOU
TAF
KPOU 071724Z 0718/0818 VRB03KT P6SM SCT200
     FM080600 02006KT P6SM SCT030 OVC070
     FM081200 05008KT P6SM SCT025 OVC050
     FM081600 02009KT P6SM VCSH OVC040=

USA.gov is the U.S. government's official web portal to all federal, state and local government web resources and services.